sensor_id;sensor_type;location;lat;lon;timestamp;pressure;altitude;pressure_sealevel;temperature;humidity
51999;BME280;38015;50.924;11.598;2023-02-28T00:00:39;100737.66;;;21.49;23.71
51999;BME280;38015;50.924;11.598;2023-02-28T00:03:08;100739.73;;;21.40;23.85
51999;BME280;38015;50.924;11.598;2023-02-28T00:05:38;100738.54;;;21.53;23.66
51999;BME280;38015;50.924;11.598;2023-02-28T00:08:09;100737.76;;;21.46;23.79
51999;BME280;38015;50.924;11.598;2023-02-28T00:10:41;100738.25;;;21.52;23.67
51999;BME280;38015;50.924;11.598;2023-02-28T00:13:10;100738.38;;;21.57;23.59
51999;BME280;38015;50.924;11.598;2023-02-28T00:15:41;100738.80;;;21.54;23.65
51999;BME280;38015;50.924;11.598;2023-02-28T00:18:11;100738.96;;;21.58;23.59
51999;BME280;38015;50.924;11.598;2023-02-28T00:20:41;100735.77;;;21.55;23.63
51999;BME280;38015;50.924;11.598;2023-02-28T00:23:13;100733.33;;;21.52;23.64
51999;BME280;38015;50.924;11.598;2023-02-28T00:25:43;100734.69;;;21.48;23.71
51999;BME280;38015;50.924;11.598;2023-02-28T00:28:13;100734.56;;;21.56;23.61
51999;BME280;38015;50.924;11.598;2023-02-28T00:30:44;100731.78;;;21.53;23.63
51999;BME280;38015;50.924;11.598;2023-02-28T00:33:14;100733.89;;;21.46;23.76
51999;BME280;38015;50.924;11.598;2023-02-28T00:35:45;100735.27;;;21.43;23.80
51999;BME280;38015;50.924;11.598;2023-02-28T00:38:16;100730.36;;;21.50;23.69
51999;BME280;38015;50.924;11.598;2023-02-28T00:40:46;100728.09;;;21.51;23.65
51999;BME280;38015;50.924;11.598;2023-02-28T00:43:16;100731.61;;;21.54;23.61
51999;BME280;38015;50.924;11.598;2023-02-28T00:45:47;100731.33;;;21.44;23.76
51999;BME280;38015;50.924;11.598;2023-02-28T00:48:17;100729.62;;;21.49;23.69
51999;BME280;38015;50.924;11.598;2023-02-28T00:50:48;100730.77;;;21.47;23.72
51999;BME280;38015;50.924;11.598;2023-02-28T00:53:19;100728.62;;;21.51;23.66
51999;BME280;38015;50.924;11.598;2023-02-28T00:55:49;100729.81;;;21.59;23.54
51999;BME280;38015;50.924;11.598;2023-02-28T00:58:19;100727.44;;;21.53;23.62
51999;BME280;38015;50.924;11.598;2023-02-28T01:00:50;100729.66;;;21.53;23.62
51999;BME280;38015;50.924;11.598;2023-02-28T01:03:21;100726.99;;;21.54;23.60
51999;BME280;38015;50.924;11.598;2023-02-28T01:05:51;100725.95;;;21.48;23.71
51999;BME280;38015;50.924;11.598;2023-02-28T01:08:22;100727.44;;;21.49;23.68
51999;BME280;38015;50.924;11.598;2023-02-28T01:10:52;100724.46;;;21.52;23.63
51999;BME280;38015;50.924;11.598;2023-02-28T01:13:24;100720.36;;;21.46;23.73
51999;BME280;38015;50.924;11.598;2023-02-28T01:15:55;100719.88;;;21.48;23.71
51999;BME280;38015;50.924;11.598;2023-02-28T01:18:24;100721.28;;;21.45;23.74
51999;BME280;38015;50.924;11.598;2023-02-28T01:20:55;100720.79;;;21.45;23.73
51999;BME280;38015;50.924;11.598;2023-02-28T01:23:25;100716.51;;;21.50;23.67
51999;BME280;38015;50.924;11.598;2023-02-28T01:25:55;100713.52;;;21.44;23.75
51999;BME280;38015;50.924;11.598;2023-02-28T01:28:26;100715.96;;;21.49;23.68
51999;BME280;38015;50.924;11.598;2023-02-28T01:30:56;100714.02;;;21.50;23.66
51999;BME280;38015;50.924;11.598;2023-02-28T01:33:28;100713.66;;;21.48;23.70
51999;BME280;38015;50.924;11.598;2023-02-28T01:35:58;100714.80;;;21.39;23.80
51999;BME280;38015;50.924;11.598;2023-02-28T01:38:28;100715.28;;;21.49;23.68
51999;BME280;38015;50.924;11.598;2023-02-28T01:41:00;100713.23;;;21.55;23.56
51999;BME280;38015;50.924;11.598;2023-02-28T01:45:59;100711.76;;;21.46;23.70
51999;BME280;38015;50.924;11.598;2023-02-28T01:48:32;100710.25;;;21.54;23.58
51999;BME280;38015;50.924;11.598;2023-02-28T01:51:06;100705.65;;;21.50;23.62
51999;BME280;38015;50.924;11.598;2023-02-28T01:53:36;100707.98;;;21.51;23.62
51999;BME280;38015;50.924;11.598;2023-02-28T01:56:06;100706.70;;;21.48;23.66
51999;BME280;38015;50.924;11.598;2023-02-28T01:58:32;100710.35;;;21.44;23.73
51999;BME280;38015;50.924;11.598;2023-02-28T02:01:03;100706.55;;;21.47;23.67
51999;BME280;38015;50.924;11.598;2023-02-28T02:03:37;100704.89;;;21.40;23.77
51999;BME280;38015;50.924;11.598;2023-02-28T02:06:05;100702.94;;;21.42;23.77
51999;BME280;38015;50.924;11.598;2023-02-28T02:08:34;100699.08;;;21.46;23.69
51999;BME280;38015;50.924;11.598;2023-02-28T02:11:07;100698.37;;;21.45;23.71
51999;BME280;38015;50.924;11.598;2023-02-28T02:13:44;100697.28;;;21.53;23.57
51999;BME280;38015;50.924;11.598;2023-02-28T02:16:19;100696.01;;;21.42;23.73
51999;BME280;38015;50.924;11.598;2023-02-28T02:18:42;100692.65;;;21.45;23.68
51999;BME280;38015;50.924;11.598;2023-02-28T02:31:21;100684.88;;;21.46;23.64
51999;BME280;38015;50.924;11.598;2023-02-28T02:36:14;100681.59;;;21.41;23.73
51999;BME280;38015;50.924;11.598;2023-02-28T02:38:48;100684.97;;;21.45;23.66
51999;BME280;38015;50.924;11.598;2023-02-28T02:41:19;100684.51;;;21.45;23.66
51999;BME280;38015;50.924;11.598;2023-02-28T02:43:48;100682.71;;;21.46;23.65
51999;BME280;38015;50.924;11.598;2023-02-28T02:46:16;100683.77;;;21.48;23.61
51999;BME280;38015;50.924;11.598;2023-02-28T02:48:44;100685.39;;;21.44;23.66
51999;BME280;38015;50.924;11.598;2023-02-28T02:51:16;100687.22;;;21.39;23.76
51999;BME280;38015;50.924;11.598;2023-02-28T02:53:47;100687.44;;;21.46;23.64
51999;BME280;38015;50.924;11.598;2023-02-28T02:56:15;100685.86;;;21.39;23.74
51999;BME280;38015;50.924;11.598;2023-02-28T02:58:47;100687.72;;;21.44;23.66
51999;BME280;38015;50.924;11.598;2023-02-28T03:01:20;100686.84;;;21.41;23.72
51999;BME280;38015;50.924;11.598;2023-02-28T03:03:46;100688.82;;;21.44;23.65
51999;BME280;38015;50.924;11.598;2023-02-28T03:06:16;100690.15;;;21.39;23.75
51999;BME280;38015;50.924;11.598;2023-02-28T03:08:47;100689.02;;;21.44;23.66
51999;BME280;38015;50.924;11.598;2023-02-28T03:11:18;100689.96;;;21.43;23.67
51999;BME280;38015;50.924;11.598;2023-02-28T03:14:01;100690.00;;;21.49;23.55
51999;BME280;38015;50.924;11.598;2023-02-28T03:18:58;100690.71;;;21.45;23.62
51999;BME280;38015;50.924;11.598;2023-02-28T03:21:24;100688.66;;;21.39;23.71
51999;BME280;38015;50.924;11.598;2023-02-28T03:23:58;100691.45;;;21.39;23.70
51999;BME280;38015;50.924;11.598;2023-02-28T03:26:25;100691.81;;;21.49;23.57
51999;BME280;38015;50.924;11.598;2023-02-28T03:28:58;100693.96;;;21.49;23.56
51999;BME280;38015;50.924;11.598;2023-02-28T03:31:27;100694.52;;;21.33;23.79
51999;BME280;38015;50.924;11.598;2023-02-28T03:34:00;100696.38;;;21.40;23.69
51999;BME280;38015;50.924;11.598;2023-02-28T03:36:27;100691.22;;;21.49;23.54
51999;BME280;38015;50.924;11.598;2023-02-28T03:38:58;100693.35;;;21.40;23.69
51999;BME280;38015;50.924;11.598;2023-02-28T03:41:31;100692.04;;;21.40;23.68
51999;BME280;38015;50.924;11.598;2023-02-28T03:43:59;100692.85;;;21.46;23.59
51999;BME280;38015;50.924;11.598;2023-02-28T03:46:28;100691.54;;;21.40;23.68
51999;BME280;38015;50.924;11.598;2023-02-28T03:48:59;100692.56;;;21.47;23.56
51999;BME280;38015;50.924;11.598;2023-02-28T03:51:27;100688.18;;;21.46;23.56
51999;BME280;38015;50.924;11.598;2023-02-28T03:54:02;100686.08;;;21.48;23.51
51999;BME280;38015;50.924;11.598;2023-02-28T03:56:33;100686.96;;;21.45;23.60
51999;BME280;38015;50.924;11.598;2023-02-28T03:59:02;100683.27;;;21.49;23.50
51999;BME280;38015;50.924;11.598;2023-02-28T04:01:33;100691.05;;;21.43;23.61
51999;BME280;38015;50.924;11.598;2023-02-28T04:03:58;100693.45;;;21.40;23.65
51999;BME280;38015;50.924;11.598;2023-02-28T04:06:31;100695.67;;;21.42;23.62
51999;BME280;38015;50.924;11.598;2023-02-28T04:09:00;100698.74;;;21.44;23.60
51999;BME280;38015;50.924;11.598;2023-02-28T04:11:33;100698.60;;;21.42;23.60
51999;BME280;38015;50.924;11.598;2023-02-28T04:14:02;100698.87;;;21.39;23.66
51999;BME280;38015;50.924;11.598;2023-02-28T04:16:33;100700.40;;;21.46;23.54
51999;BME280;38015;50.924;11.598;2023-02-28T04:19:02;100700.64;;;21.42;23.59
51999;BME280;38015;50.924;11.598;2023-02-28T04:21:35;100704.00;;;21.39;23.64
51999;BME280;38015;50.924;11.598;2023-02-28T04:24:04;100706.67;;;21.37;23.66
51999;BME280;38015;50.924;11.598;2023-02-28T04:26:35;100705.27;;;21.32;23.75
51999;BME280;38015;50.924;11.598;2023-02-28T04:29:05;100706.98;;;21.40;23.65
51999;BME280;38015;50.924;11.598;2023-02-28T04:31:36;100709.95;;;21.40;23.65
51999;BME280;38015;50.924;11.598;2023-02-28T04:34:05;100709.49;;;21.42;23.60
51999;BME280;38015;50.924;11.598;2023-02-28T04:36:35;100712.78;;;21.45;23.54
51999;BME280;38015;50.924;11.598;2023-02-28T04:39:06;100712.95;;;21.33;23.74
51999;BME280;38015;50.924;11.598;2023-02-28T04:41:37;100713.60;;;21.37;23.67
51999;BME280;38015;50.924;11.598;2023-02-28T04:44:07;100713.15;;;21.37;23.68
51999;BME280;38015;50.924;11.598;2023-02-28T04:46:38;100711.41;;;21.42;23.60
51999;BME280;38015;50.924;11.598;2023-02-28T04:49:09;100710.42;;;21.44;23.57
51999;BME280;38015;50.924;11.598;2023-02-28T04:51:39;100712.41;;;21.40;23.61
51999;BME280;38015;50.924;11.598;2023-02-28T04:54:09;100711.69;;;21.34;23.70
51999;BME280;38015;50.924;11.598;2023-02-28T04:56:39;100714.71;;;21.39;23.64
51999;BME280;38015;50.924;11.598;2023-02-28T04:59:10;100712.70;;;21.36;23.66
51999;BME280;38015;50.924;11.598;2023-02-28T05:01:46;100713.39;;;21.32;23.72
51999;BME280;38015;50.924;11.598;2023-02-28T05:04:11;100715.92;;;21.37;23.65
51999;BME280;38015;50.924;11.598;2023-02-28T05:06:42;100715.30;;;21.39;23.62
51999;BME280;38015;50.924;11.598;2023-02-28T05:09:12;100716.61;;;21.36;23.66
51999;BME280;38015;50.924;11.598;2023-02-28T05:11:43;100718.36;;;21.37;23.64
51999;BME280;38015;50.924;11.598;2023-02-28T05:14:14;100720.94;;;21.44;23.54
51999;BME280;38015;50.924;11.598;2023-02-28T05:16:44;100719.86;;;21.45;23.55
51999;BME280;38015;50.924;11.598;2023-02-28T05:19:14;100718.49;;;21.44;23.54
51999;BME280;38015;50.924;11.598;2023-02-28T05:21:50;100719.45;;;21.44;23.54
51999;BME280;38015;50.924;11.598;2023-02-28T05:24:15;100719.99;;;21.44;23.55
51999;BME280;38015;50.924;11.598;2023-02-28T05:26:46;100722.31;;;21.43;23.55
51999;BME280;38015;50.924;11.598;2023-02-28T05:29:16;100723.84;;;21.40;23.60
51999;BME280;38015;50.924;11.598;2023-02-28T05:31:47;100727.85;;;21.36;23.64
51999;BME280;38015;50.924;11.598;2023-02-28T05:34:17;100729.91;;;21.43;23.57
51999;BME280;38015;50.924;11.598;2023-02-28T05:36:48;100734.48;;;21.41;23.59
51999;BME280;38015;50.924;11.598;2023-02-28T05:39:20;100736.72;;;21.39;23.58
51999;BME280;38015;50.924;11.598;2023-02-28T05:41:49;100737.36;;;21.45;23.52
51999;BME280;38015;50.924;11.598;2023-02-28T05:44:19;100737.28;;;21.40;23.61
51999;BME280;38015;50.924;11.598;2023-02-28T05:46:51;100741.22;;;21.33;23.69
51999;BME280;38015;50.924;11.598;2023-02-28T05:49:20;100740.90;;;21.42;23.59
51999;BME280;38015;50.924;11.598;2023-02-28T05:51:53;100742.36;;;21.28;23.76
51999;BME280;38015;50.924;11.598;2023-02-28T05:54:21;100741.30;;;21.41;23.59
51999;BME280;38015;50.924;11.598;2023-02-28T05:56:52;100742.66;;;21.34;23.67
51999;BME280;38015;50.924;11.598;2023-02-28T05:59:23;100741.54;;;21.37;23.65
51999;BME280;38015;50.924;11.598;2023-02-28T06:01:53;100743.96;;;21.40;23.58
51999;BME280;38015;50.924;11.598;2023-02-28T06:04:24;100744.62;;;21.39;23.61
51999;BME280;38015;50.924;11.598;2023-02-28T06:06:56;100745.13;;;21.35;23.64
51999;BME280;38015;50.924;11.598;2023-02-28T06:09:25;100745.58;;;21.38;23.60
51999;BME280;38015;50.924;11.598;2023-02-28T06:11:57;100748.35;;;21.38;23.61
51999;BME280;38015;50.924;11.598;2023-02-28T06:14:26;100749.63;;;21.43;23.51
51999;BME280;38015;50.924;11.598;2023-02-28T06:16:56;100750.45;;;21.38;23.57
51999;BME280;38015;50.924;11.598;2023-02-28T06:19:27;100751.55;;;21.38;23.55
51999;BME280;38015;50.924;11.598;2023-02-28T06:21:57;100754.70;;;21.37;23.57
51999;BME280;38015;50.924;11.598;2023-02-28T06:24:28;100758.67;;;21.36;23.60
51999;BME280;38015;50.924;11.598;2023-02-28T06:26:58;100759.44;;;21.41;23.50
51999;BME280;38015;50.924;11.598;2023-02-28T06:29:29;100762.82;;;21.40;23.51
51999;BME280;38015;50.924;11.598;2023-02-28T06:31:59;100764.70;;;21.33;23.59
51999;BME280;38015;50.924;11.598;2023-02-28T06:34:30;100768.16;;;21.39;23.50
51999;BME280;38015;50.924;11.598;2023-02-28T06:37:00;100770.70;;;21.35;23.56
51999;BME280;38015;50.924;11.598;2023-02-28T06:39:31;100776.57;;;21.34;23.58
51999;BME280;38015;50.924;11.598;2023-02-28T06:42:02;100780.91;;;21.39;23.52
51999;BME280;38015;50.924;11.598;2023-02-28T06:44:32;100783.24;;;21.41;23.48
51999;BME280;38015;50.924;11.598;2023-02-28T06:47:04;100786.90;;;21.24;23.71
51999;BME280;38015;50.924;11.598;2023-02-28T06:49:35;100788.30;;;21.43;23.42
51999;BME280;38015;50.924;11.598;2023-02-28T06:52:05;100787.72;;;21.44;23.85
51999;BME280;38015;50.924;11.598;2023-02-28T06:54:35;100790.68;;;21.45;23.44
51999;BME280;38015;50.924;11.598;2023-02-28T06:57:05;100794.39;;;21.42;23.48
51999;BME280;38015;50.924;11.598;2023-02-28T06:59:35;100793.56;;;21.43;23.43
51999;BME280;38015;50.924;11.598;2023-02-28T07:02:07;100798.84;;;21.41;23.47
51999;BME280;38015;50.924;11.598;2023-02-28T07:04:36;100798.99;;;21.43;23.43
51999;BME280;38015;50.924;11.598;2023-02-28T07:07:07;100799.94;;;21.45;23.39
51999;BME280;38015;50.924;11.598;2023-02-28T07:09:37;100803.33;;;21.47;23.38
51999;BME280;38015;50.924;11.598;2023-02-28T07:12:08;100803.98;;;21.24;23.82
51999;BME280;38015;50.924;11.598;2023-02-28T07:14:38;100806.92;;;21.30;23.69
51999;BME280;38015;50.924;11.598;2023-02-28T07:17:09;100807.88;;;21.35;23.63
51999;BME280;38015;50.924;11.598;2023-02-28T07:19:39;100810.91;;;21.40;23.61
51999;BME280;38015;50.924;11.598;2023-02-28T07:22:11;100810.78;;;21.43;23.59
51999;BME280;38015;50.924;11.598;2023-02-28T07:24:40;100809.10;;;21.49;23.55
51999;BME280;38015;50.924;11.598;2023-02-28T07:27:11;100810.19;;;21.50;23.54
51999;BME280;38015;50.924;11.598;2023-02-28T07:29:41;100809.49;;;21.30;23.46
51999;BME280;38015;50.924;11.598;2023-02-28T07:32:12;100809.55;;;21.30;23.04
51999;BME280;38015;50.924;11.598;2023-02-28T07:34:42;100807.75;;;21.47;22.96
51999;BME280;38015;50.924;11.598;2023-02-28T07:37:13;100810.52;;;21.62;24.74
51999;BME280;38015;50.924;11.598;2023-02-28T07:39:43;100810.98;;;21.58;24.72
51999;BME280;38015;50.924;11.598;2023-02-28T07:42:14;100814.91;;;21.68;24.33
51999;BME280;38015;50.924;11.598;2023-02-28T07:44:45;100811.93;;;21.56;24.87
51999;BME280;38015;50.924;11.598;2023-02-28T07:47:15;100816.31;;;21.42;25.26
51999;BME280;38015;50.924;11.598;2023-02-28T07:49:46;100817.63;;;21.35;25.91
51999;BME280;38015;50.924;11.598;2023-02-28T07:52:18;100817.84;;;21.25;26.12
51999;BME280;38015;50.924;11.598;2023-02-28T07:54:47;100820.59;;;20.96;26.90
51999;BME280;38015;50.924;11.598;2023-02-28T07:57:17;100818.38;;;21.33;26.42
51999;BME280;38015;50.924;11.598;2023-02-28T07:59:48;100822.01;;;21.48;26.21
51999;BME280;38015;50.924;11.598;2023-02-28T08:02:18;100824.68;;;21.74;25.71
51999;BME280;38015;50.924;11.598;2023-02-28T08:04:49;100821.95;;;21.94;25.18
51999;BME280;38015;50.924;11.598;2023-02-28T08:07:19;100820.97;;;22.02;25.26
51999;BME280;38015;50.924;11.598;2023-02-28T08:09:50;100820.89;;;21.93;25.39
51999;BME280;38015;50.924;11.598;2023-02-28T08:12:20;100817.64;;;22.12;25.35
51999;BME280;38015;50.924;11.598;2023-02-28T08:14:51;100816.97;;;21.79;26.61
51999;BME280;38015;50.924;11.598;2023-02-28T08:17:21;100819.52;;;21.85;26.35
51999;BME280;38015;50.924;11.598;2023-02-28T08:19:52;100815.17;;;22.24;25.95
51999;BME280;38015;50.924;11.598;2023-02-28T08:22:22;100816.70;;;22.25;26.31
51999;BME280;38015;50.924;11.598;2023-02-28T08:24:55;100818.45;;;22.32;26.26
51999;BME280;38015;50.924;11.598;2023-02-28T08:27:23;100821.02;;;22.33;26.55
51999;BME280;38015;50.924;11.598;2023-02-28T08:29:54;100816.46;;;22.39;26.54
51999;BME280;38015;50.924;11.598;2023-02-28T08:32:24;100817.17;;;22.33;26.80
51999;BME280;38015;50.924;11.598;2023-02-28T08:34:55;100818.75;;;22.33;26.74
51999;BME280;38015;50.924;11.598;2023-02-28T08:37:25;100823.39;;;22.32;26.81
51999;BME280;38015;50.924;11.598;2023-02-28T08:39:56;100821.04;;;22.26;27.15
51999;BME280;38015;50.924;11.598;2023-02-28T08:42:26;100821.83;;;22.25;27.01
51999;BME280;38015;50.924;11.598;2023-02-28T08:44:57;100822.49;;;22.27;26.94
51999;BME280;38015;50.924;11.598;2023-02-28T08:47:27;100822.52;;;22.27;26.84
51999;BME280;38015;50.924;11.598;2023-02-28T08:49:58;100822.32;;;22.41;26.92
51999;BME280;38015;50.924;11.598;2023-02-28T08:52:30;100824.32;;;22.45;27.04
51999;BME280;38015;50.924;11.598;2023-02-28T08:54:59;100823.33;;;22.62;26.66
51999;BME280;38015;50.924;11.598;2023-02-28T08:57:29;100822.78;;;22.81;25.34
51999;BME280;38015;50.924;11.598;2023-02-28T09:00:00;100825.45;;;22.91;25.79
51999;BME280;38015;50.924;11.598;2023-02-28T09:02:31;100824.53;;;22.92;25.92
51999;BME280;38015;50.924;11.598;2023-02-28T09:05:01;100824.26;;;22.85;26.44
51999;BME280;38015;50.924;11.598;2023-02-28T09:07:31;100829.10;;;22.94;25.36
51999;BME280;38015;50.924;11.598;2023-02-28T09:10:02;100828.77;;;23.04;24.37
51999;BME280;38015;50.924;11.598;2023-02-28T09:12:34;100826.50;;;23.07;25.27
51999;BME280;38015;50.924;11.598;2023-02-28T09:15:04;100827.33;;;23.09;23.27
51999;BME280;38015;50.924;11.598;2023-02-28T09:17:33;100822.30;;;23.09;25.02
51999;BME280;38015;50.924;11.598;2023-02-28T09:20:04;100828.28;;;23.05;24.60
51999;BME280;38015;50.924;11.598;2023-02-28T09:22:34;100825.24;;;22.95;24.46
51999;BME280;38015;50.924;11.598;2023-02-28T09:25:05;100822.51;;;22.94;25.10
51999;BME280;38015;50.924;11.598;2023-02-28T09:27:35;100824.64;;;22.84;24.36
51999;BME280;38015;50.924;11.598;2023-02-28T09:30:07;100820.53;;;22.87;25.64
51999;BME280;38015;50.924;11.598;2023-02-28T09:32:36;100822.66;;;23.10;24.34
51999;BME280;38015;50.924;11.598;2023-02-28T09:35:08;100820.96;;;22.77;25.44
51999;BME280;38015;50.924;11.598;2023-02-28T09:37:37;100821.56;;;22.85;25.19
51999;BME280;38015;50.924;11.598;2023-02-28T09:40:09;100824.82;;;22.73;24.78
51999;BME280;38015;50.924;11.598;2023-02-28T09:42:38;100822.97;;;22.82;25.25
51999;BME280;38015;50.924;11.598;2023-02-28T09:45:18;100825.06;;;22.85;24.89
51999;BME280;38015;50.924;11.598;2023-02-28T09:47:42;100823.89;;;22.98;24.41
51999;BME280;38015;50.924;11.598;2023-02-28T09:50:17;100818.21;;;22.95;26.10
51999;BME280;38015;50.924;11.598;2023-02-28T09:52:41;100823.14;;;22.84;22.76
51999;BME280;38015;50.924;11.598;2023-02-28T09:55:19;100821.69;;;22.90;23.69
51999;BME280;38015;50.924;11.598;2023-02-28T09:57:41;100823.42;;;22.82;23.77
51999;BME280;38015;50.924;11.598;2023-02-28T10:00:15;100822.70;;;22.90;23.33
51999;BME280;38015;50.924;11.598;2023-02-28T10:02:51;100823.81;;;22.90;23.88
51999;BME280;38015;50.924;11.598;2023-02-28T10:05:13;100821.74;;;22.92;23.49
51999;BME280;38015;50.924;11.598;2023-02-28T10:07:56;100817.73;;;22.75;23.91
51999;BME280;38015;50.924;11.598;2023-02-28T10:10:21;100827.48;;;22.86;24.10
51999;BME280;38015;50.924;11.598;2023-02-28T10:12:45;100824.16;;;22.86;22.92
51999;BME280;38015;50.924;11.598;2023-02-28T10:15:15;100819.82;;;22.78;25.20
51999;BME280;38015;50.924;11.598;2023-02-28T10:17:49;100816.83;;;22.86;24.45
51999;BME280;38015;50.924;11.598;2023-02-28T10:20:20;100821.67;;;22.99;23.94
51999;BME280;38015;50.924;11.598;2023-02-28T10:22:52;100821.56;;;22.77;23.44
51999;BME280;38015;50.924;11.598;2023-02-28T10:25:20;100817.13;;;22.66;23.04
51999;BME280;38015;50.924;11.598;2023-02-28T10:27:46;100819.62;;;22.75;22.46
51999;BME280;38015;50.924;11.598;2023-02-28T10:30:17;100815.85;;;22.64;24.03
51999;BME280;38015;50.924;11.598;2023-02-28T10:32:50;100814.72;;;22.84;22.88
51999;BME280;38015;50.924;11.598;2023-02-28T10:35:20;100817.39;;;22.71;24.16
51999;BME280;38015;50.924;11.598;2023-02-28T10:37:50;100819.70;;;22.59;23.18
51999;BME280;38015;50.924;11.598;2023-02-28T10:40:27;100818.23;;;22.95;22.69
51999;BME280;38015;50.924;11.598;2023-02-28T10:42:54;100819.59;;;22.97;23.41
51999;BME280;38015;50.924;11.598;2023-02-28T10:45:19;100815.61;;;22.85;23.31
51999;BME280;38015;50.924;11.598;2023-02-28T10:47:54;100815.08;;;22.92;23.33
51999;BME280;38015;50.924;11.598;2023-02-28T10:50:27;100810.57;;;23.02;23.40
51999;BME280;38015;50.924;11.598;2023-02-28T10:52:51;100809.71;;;23.01;23.94
51999;BME280;38015;50.924;11.598;2023-02-28T10:55:23;100804.49;;;22.91;24.28
51999;BME280;38015;50.924;11.598;2023-02-28T10:57:53;100801.39;;;22.99;24.30
51999;BME280;38015;50.924;11.598;2023-02-28T11:00:24;100798.02;;;22.96;24.41
51999;BME280;38015;50.924;11.598;2023-02-28T11:02:52;100797.86;;;22.96;24.33
51999;BME280;38015;50.924;11.598;2023-02-28T11:05:27;100800.00;;;22.87;24.45
51999;BME280;38015;50.924;11.598;2023-02-28T11:07:54;100799.39;;;22.99;24.16
51999;BME280;38015;50.924;11.598;2023-02-28T11:10:30;100800.87;;;22.81;24.39
51999;BME280;38015;50.924;11.598;2023-02-28T11:12:55;100801.32;;;22.95;24.31
51999;BME280;38015;50.924;11.598;2023-02-28T11:15:27;100806.58;;;23.03;24.21
51999;BME280;38015;50.924;11.598;2023-02-28T11:17:58;100808.29;;;23.08;24.20
51999;BME280;38015;50.924;11.598;2023-02-28T11:20:30;100799.07;;;22.98;24.03
51999;BME280;38015;50.924;11.598;2023-02-28T11:22:58;100795.08;;;22.96;24.33
51999;BME280;38015;50.924;11.598;2023-02-28T11:25:31;100789.87;;;22.99;24.40
51999;BME280;38015;50.924;11.598;2023-02-28T11:27:58;100783.81;;;22.94;23.87
51999;BME280;38015;50.924;11.598;2023-02-28T11:30:34;100791.18;;;23.06;23.36
51999;BME280;38015;50.924;11.598;2023-02-28T11:32:58;100786.28;;;23.00;23.47
51999;BME280;38015;50.924;11.598;2023-02-28T11:35:33;100784.10;;;22.75;23.82
51999;BME280;38015;50.924;11.598;2023-02-28T11:37:59;100788.39;;;22.96;23.02
51999;BME280;38015;50.924;11.598;2023-02-28T11:40:38;100786.95;;;22.93;23.41
51999;BME280;38015;50.924;11.598;2023-02-28T11:43:08;100781.78;;;22.63;23.80
51999;BME280;38015;50.924;11.598;2023-02-28T11:45:42;100779.53;;;22.95;24.06
51999;BME280;38015;50.924;11.598;2023-02-28T11:48:08;100775.33;;;23.05;23.82
51999;BME280;38015;50.924;11.598;2023-02-28T11:50:42;100778.22;;;22.95;24.50
51999;BME280;38015;50.924;11.598;2023-02-28T11:53:19;100780.40;;;22.94;24.49
51999;BME280;38015;50.924;11.598;2023-02-28T11:55:37;100775.81;;;22.76;24.89
51999;BME280;38015;50.924;11.598;2023-02-28T11:58:16;100775.78;;;23.12;23.78
51999;BME280;38015;50.924;11.598;2023-02-28T12:00:40;100773.79;;;23.14;24.16
51999;BME280;38015;50.924;11.598;2023-02-28T12:03:17;100775.56;;;22.97;24.28
51999;BME280;38015;50.924;11.598;2023-02-28T12:05:46;100775.14;;;23.07;23.98
51999;BME280;38015;50.924;11.598;2023-02-28T12:10:43;100773.01;;;22.87;24.77
51999;BME280;38015;50.924;11.598;2023-02-28T12:13:18;100768.40;;;23.05;24.71
51999;BME280;38015;50.924;11.598;2023-02-28T12:18:17;100768.22;;;22.85;23.59
51999;BME280;38015;50.924;11.598;2023-02-28T12:20:44;100771.67;;;22.88;23.42
51999;BME280;38015;50.924;11.598;2023-02-28T12:23:21;100762.32;;;23.02;23.08
51999;BME280;38015;50.924;11.598;2023-02-28T12:25:48;100762.11;;;23.05;23.55
51999;BME280;38015;50.924;11.598;2023-02-28T12:28:10;100757.61;;;23.05;23.53
51999;BME280;38015;50.924;11.598;2023-02-28T12:30:43;100750.27;;;22.88;23.91
51999;BME280;38015;50.924;11.598;2023-02-28T12:33:13;100754.29;;;23.06;23.65
51999;BME280;38015;50.924;11.598;2023-02-28T12:35:48;100756.65;;;23.09;23.53
51999;BME280;38015;50.924;11.598;2023-02-28T12:38:14;100748.89;;;23.09;23.04
51999;BME280;38015;50.924;11.598;2023-02-28T12:40:44;100747.41;;;23.06;22.94
51999;BME280;38015;50.924;11.598;2023-02-28T12:43:13;100746.50;;;22.99;23.43
51999;BME280;38015;50.924;11.598;2023-02-28T12:45:46;100745.38;;;23.02;23.00
51999;BME280;38015;50.924;11.598;2023-02-28T12:48:15;100737.49;;;23.02;22.93
51999;BME280;38015;50.924;11.598;2023-02-28T12:50:43;100735.56;;;23.10;23.09
51999;BME280;38015;50.924;11.598;2023-02-28T12:53:22;100730.89;;;23.04;23.28
51999;BME280;38015;50.924;11.598;2023-02-28T12:55:49;100732.02;;;23.08;23.35
51999;BME280;38015;50.924;11.598;2023-02-28T12:58:19;100730.48;;;23.13;22.79
51999;BME280;38015;50.924;11.598;2023-02-28T13:03:29;100723.43;;;22.81;23.48
51999;BME280;38015;50.924;11.598;2023-02-28T13:10:50;100726.27;;;23.15;23.29
51999;BME280;38015;50.924;11.598;2023-02-28T13:13:19;100721.18;;;23.03;23.22
51999;BME280;38015;50.924;11.598;2023-02-28T13:15:57;100725.29;;;23.06;23.30
51999;BME280;38015;50.924;11.598;2023-02-28T13:18:27;100723.21;;;23.14;23.36
51999;BME280;38015;50.924;11.598;2023-02-28T13:20:48;100729.39;;;23.09;23.41
51999;BME280;38015;50.924;11.598;2023-02-28T13:25:51;100728.40;;;23.16;22.95
51999;BME280;38015;50.924;11.598;2023-02-28T13:33:24;100722.15;;;23.12;23.04